createdAt,value
2023-03-28T00:00:25.690Z,0.60
2023-03-28T00:03:14.409Z,0.87
2023-03-28T00:06:00.879Z,0.77
2023-03-28T00:08:47.472Z,0.87
2023-03-28T00:11:33.784Z,0.70
2023-03-28T00:14:19.149Z,0.70
2023-03-28T00:17:07.466Z,0.60
2023-03-28T00:19:53.468Z,0.43
2023-03-28T00:22:39.111Z,0.50
2023-03-28T00:25:24.780Z,0.70
2023-03-28T00:28:10.097Z,0.50
2023-03-28T00:31:02.659Z,0.50
2023-03-28T00:33:47.860Z,0.57
2023-03-28T00:36:33.695Z,0.70
2023-03-28T00:39:18.912Z,0.80
2023-03-28T00:42:04.072Z,0.60
2023-03-28T00:44:57.326Z,0.60
2023-03-28T00:47:52.457Z,0.70
2023-03-28T00:50:42.274Z,0.70
2023-03-28T00:53:27.750Z,0.90
2023-03-28T00:56:23.845Z,0.50
2023-03-28T00:59:13.686Z,0.60
2023-03-28T01:01:59.638Z,0.70
2023-03-28T01:04:54.767Z,0.83
2023-03-28T01:07:46.055Z,0.60
2023-03-28T01:10:36.471Z,0.50
2023-03-28T01:13:29.556Z,0.40
2023-03-28T01:16:17.502Z,0.47
2023-03-28T01:19:03.637Z,0.47
2023-03-28T01:22:37.633Z,0.47
2023-03-28T01:25:53.441Z,0.60
2023-03-28T01:29:11.358Z,0.53
2023-03-28T01:32:15.310Z,0.47
2023-03-28T01:35:33.746Z,0.57
2023-03-28T01:38:32.466Z,0.40
2023-03-28T01:41:41.101Z,0.83
2023-03-28T01:44:41.291Z,0.50
2023-03-28T01:47:34.416Z,0.50
2023-03-28T01:50:30.061Z,0.63
2023-03-28T01:53:43.016Z,0.70
2023-03-28T01:56:39.706Z,0.97
2023-03-28T01:59:43.509Z,0.70
2023-03-28T02:02:51.025Z,0.70
2023-03-28T02:05:45.663Z,0.83
2023-03-28T02:08:38.715Z,0.60
2023-03-28T02:11:37.632Z,0.60
2023-03-28T02:14:37.151Z,0.50
2023-03-28T02:17:48.360Z,0.57
2023-03-28T02:21:03.756Z,0.70
2023-03-28T02:24:19.600Z,0.70
2023-03-28T02:27:22.539Z,0.60
2023-03-28T02:30:27.163Z,0.50
2023-03-28T02:33:38.858Z,0.70
2023-03-28T02:36:34.565Z,0.83
2023-03-28T02:39:44.365Z,0.50
2023-03-28T02:42:36.096Z,0.70
2023-03-28T02:45:30.166Z,0.60
2023-03-28T02:48:18.060Z,0.47
2023-03-28T02:51:42.298Z,0.60
2023-03-28T02:54:36.572Z,0.63
2023-03-28T02:57:48.557Z,0.57
2023-03-28T03:00:33.998Z,0.60
2023-03-28T03:03:19.314Z,0.70
2023-03-28T03:06:05.750Z,0.77
2023-03-28T03:08:50.840Z,0.57
2023-03-28T03:11:36.308Z,0.70
2023-03-28T03:14:22.395Z,0.73
2023-03-28T03:17:10.053Z,0.60
2023-03-28T03:19:56.129Z,0.70
2023-03-28T03:22:41.585Z,0.70
2023-03-28T03:25:28.085Z,0.63
2023-03-28T03:28:19.092Z,0.70
2023-03-28T03:31:06.530Z,0.80
2023-03-28T03:34:10.727Z,0.60
2023-03-28T03:37:02.380Z,0.50
2023-03-28T03:39:47.855Z,0.60
2023-03-28T03:42:36.291Z,0.50
2023-03-28T03:45:21.997Z,0.77
2023-03-28T03:48:08.011Z,0.67
2023-03-28T03:50:53.612Z,0.70
2023-03-28T03:53:40.051Z,0.73
2023-03-28T03:56:29.927Z,0.60
2023-03-28T03:59:17.353Z,0.80
2023-03-28T04:02:04.787Z,0.50
2023-03-28T04:05:04.404Z,0.67
2023-03-28T04:08:17.519Z,0.70
2023-03-28T04:11:03.192Z,0.90
2023-03-28T04:13:55.549Z,0.80
2023-03-28T04:16:41.672Z,0.80
2023-03-28T04:19:27.967Z,0.63
2023-03-28T04:22:13.781Z,0.53
2023-03-28T04:25:07.989Z,0.90
2023-03-28T04:27:57.222Z,0.47
2023-03-28T04:30:44.722Z,0.70
2023-03-28T04:33:49.345Z,0.57
2023-03-28T04:36:41.046Z,0.50
2023-03-28T04:39:27.171Z,0.80
2023-03-28T04:42:30.622Z,0.50
2023-03-28T04:45:26.973Z,0.50
2023-03-28T04:48:14.338Z,0.90
2023-03-28T04:51:00.511Z,0.60
2023-03-28T04:53:45.412Z,0.73
2023-03-28T04:57:00.491Z,0.73
2023-03-28T04:59:56.003Z,0.90
2023-03-28T05:03:01.342Z,0.70
2023-03-28T05:05:52.870Z,0.80
2023-03-28T05:08:38.423Z,0.80
2023-03-28T05:11:23.721Z,1.00
2023-03-28T05:14:09.534Z,0.80
2023-03-28T05:17:01.092Z,1.00
2023-03-28T05:20:21.630Z,0.73
2023-03-28T05:23:10.658Z,0.70
2023-03-28T05:25:58.910Z,0.60
2023-03-28T05:28:47.527Z,0.97
2023-03-28T05:31:33.797Z,0.97
2023-03-28T05:34:35.997Z,0.70
2023-03-28T05:37:22.305Z,0.77
2023-03-28T05:40:11.552Z,0.70
2023-03-28T05:42:58.763Z,0.60
2023-03-28T05:45:44.372Z,0.70
2023-03-28T05:48:31.962Z,0.87
2023-03-28T05:51:17.678Z,0.80
2023-03-28T05:54:03.244Z,0.80
2023-03-28T05:56:48.344Z,0.97
2023-03-28T05:59:33.942Z,0.50
2023-03-28T06:02:21.286Z,0.60
2023-03-28T06:05:07.826Z,0.77
2023-03-28T06:07:53.828Z,0.90
2023-03-28T06:10:39.584Z,0.60
2023-03-28T06:13:45.812Z,0.50
2023-03-28T06:16:32.843Z,0.60
2023-03-28T06:19:19.145Z,0.90
2023-03-28T06:22:10.975Z,0.63
2023-03-28T06:24:56.770Z,0.80
2023-03-28T06:27:49.391Z,0.97
2023-03-28T06:30:34.641Z,1.07
2023-03-28T06:33:20.655Z,0.73
2023-03-28T06:36:06.930Z,0.90
2023-03-28T06:38:54.025Z,0.77
2023-03-28T06:41:42.212Z,0.90
2023-03-28T06:44:28.071Z,0.70
2023-03-28T06:47:26.473Z,1.13
2023-03-28T06:50:12.268Z,1.30
2023-03-28T06:53:08.437Z,1.20
2023-03-28T06:55:54.914Z,1.23
2023-03-28T06:58:40.895Z,1.00
2023-03-28T07:01:29.258Z,1.00
2023-03-28T07:04:34.753Z,1.27
2023-03-28T07:07:20.384Z,1.20
2023-03-28T07:10:07.030Z,1.27
2023-03-28T07:12:52.587Z,1.00
2023-03-28T07:15:38.191Z,1.40
2023-03-28T07:18:23.720Z,1.30
2023-03-28T07:21:11.573Z,1.27
2023-03-28T07:23:57.070Z,1.10
2023-03-28T07:26:46.713Z,1.10
2023-03-28T07:29:31.848Z,1.10
2023-03-28T07:32:17.712Z,1.10
2023-03-28T07:35:06.256Z,1.10
2023-03-28T07:37:55.772Z,1.00
2023-03-28T07:41:13.740Z,1.40
2023-03-28T07:44:00.215Z,1.27
2023-03-28T07:46:46.582Z,1.00
2023-03-28T07:49:33.623Z,1.50
2023-03-28T07:52:20.638Z,1.30
2023-03-28T07:55:06.525Z,1.40
2023-03-28T07:57:55.636Z,1.27
2023-03-28T08:00:52.196Z,1.07
2023-03-28T08:04:06.699Z,1.30
2023-03-28T08:07:12.638Z,1.00
2023-03-28T08:10:01.441Z,1.47
2023-03-28T08:12:48.103Z,1.63
2023-03-28T08:15:33.037Z,1.53
2023-03-28T08:18:21.577Z,1.30
2023-03-28T08:21:08.038Z,1.20
2023-03-28T08:23:53.739Z,1.43
2023-03-28T08:26:53.082Z,1.37
2023-03-28T08:29:38.705Z,1.50
2023-03-28T08:32:25.435Z,1.90
2023-03-28T08:35:13.575Z,1.73
2023-03-28T08:38:00.907Z,1.50
2023-03-28T08:40:58.191Z,1.53
2023-03-28T08:44:22.189Z,1.50
2023-03-28T08:47:22.193Z,1.57
2023-03-28T08:50:15.606Z,1.90
2023-03-28T08:53:04.023Z,1.37
2023-03-28T08:55:53.540Z,1.47
2023-03-28T08:58:51.867Z,1.40
2023-03-28T09:01:37.540Z,1.10
2023-03-28T09:04:34.936Z,1.30
2023-03-28T09:07:37.246Z,1.40
2023-03-28T09:10:48.162Z,1.13
2023-03-28T09:13:56.815Z,1.40
2023-03-28T09:16:45.276Z,1.80
2023-03-28T09:20:13.984Z,1.57
2023-03-28T09:23:29.395Z,1.57
2023-03-28T09:26:56.249Z,1.37
2023-03-28T09:29:45.602Z,1.50
2023-03-28T09:32:38.147Z,1.47
2023-03-28T09:35:25.944Z,1.43
2023-03-28T09:38:31.681Z,1.70
2023-03-28T09:41:24.950Z,1.40
2023-03-28T09:44:54.015Z,1.50
2023-03-28T09:47:59.225Z,1.90
2023-03-28T09:50:47.749Z,1.40
2023-03-28T09:53:37.533Z,1.60
2023-03-28T09:56:32.026Z,1.60
2023-03-28T09:59:29.166Z,1.17
2023-03-28T10:02:30.314Z,1.50
2023-03-28T10:05:34.077Z,1.60
2023-03-28T10:08:46.929Z,1.63
2023-03-28T10:11:59.202Z,1.57
2023-03-28T10:14:49.666Z,1.40
2023-03-28T10:18:03.861Z,1.60
2023-03-28T10:20:54.621Z,1.70
2023-03-28T10:23:44.551Z,1.43
2023-03-28T10:26:30.949Z,1.10
2023-03-28T10:29:21.710Z,1.60
2023-03-28T10:32:07.131Z,1.50
2023-03-28T10:35:25.778Z,1.40
2023-03-28T10:38:22.772Z,1.33
2023-03-28T10:41:33.683Z,1.30
2023-03-28T10:44:40.623Z,1.40
2023-03-28T10:47:31.580Z,1.30
2023-03-28T10:50:36.906Z,1.53
2023-03-28T10:53:35.016Z,1.50
2023-03-28T10:56:41.574Z,1.23
2023-03-28T11:00:02.020Z,1.63
2023-03-28T11:03:09.433Z,1.27
2023-03-28T11:06:18.362Z,1.33
2023-03-28T11:09:04.420Z,1.53
2023-03-28T11:12:43.851Z,1.30
2023-03-28T11:15:47.815Z,1.33
2023-03-28T11:19:13.987Z,1.13
2023-03-28T11:22:39.868Z,1.50
2023-03-28T11:25:42.670Z,1.30
2023-03-28T11:29:43.021Z,1.60
2023-03-28T11:32:35.074Z,1.40
2023-03-28T11:35:32.603Z,1.10
2023-03-28T11:38:51.986Z,1.43
2023-03-28T11:41:41.595Z,1.67
2023-03-28T11:45:25.800Z,1.20
2023-03-28T11:48:29.440Z,1.27
2023-03-28T11:51:34.337Z,1.17
2023-03-28T11:54:29.023Z,1.37
2023-03-28T11:57:23.107Z,1.63
2023-03-28T12:00:33.759Z,1.53
2023-03-28T12:04:01.316Z,1.27
2023-03-28T12:07:02.491Z,1.47
2023-03-28T12:10:00.925Z,1.40
2023-03-28T12:12:55.665Z,1.20
2023-03-28T12:15:51.122Z,1.43
2023-03-28T12:18:49.794Z,1.30
2023-03-28T12:22:04.128Z,1.00
2023-03-28T12:25:19.911Z,1.57
2023-03-28T12:28:24.175Z,1.63
2023-03-28T12:31:22.513Z,1.13
2023-03-28T12:34:18.386Z,1.30
2023-03-28T12:37:37.646Z,1.53
2023-03-28T12:40:47.145Z,1.50
2023-03-28T12:43:48.334Z,1.30
2023-03-28T12:46:49.076Z,1.47
2023-03-28T12:49:41.645Z,1.03
2023-03-28T12:52:33.443Z,1.43
2023-03-28T12:55:26.452Z,1.40
2023-03-28T12:58:33.375Z,1.10
2023-03-28T13:01:52.871Z,1.40
2023-03-28T13:04:58.702Z,1.30
2023-03-28T13:08:02.984Z,1.40
2023-03-28T13:11:09.701Z,1.37
2023-03-28T13:14:16.944Z,1.20
2023-03-28T13:17:03.984Z,1.40
2023-03-28T13:19:53.562Z,1.57
2023-03-28T13:22:58.217Z,1.70
2023-03-28T13:25:55.595Z,1.70
2023-03-28T13:28:50.716Z,1.80
2023-03-28T13:31:42.994Z,1.67
2023-03-28T13:34:34.220Z,1.60
2023-03-28T13:37:23.069Z,1.47
2023-03-28T13:40:42.776Z,1.27
2023-03-28T13:43:44.039Z,1.57
2023-03-28T13:46:42.792Z,1.23
2023-03-28T13:49:31.041Z,1.87
2023-03-28T13:52:22.250Z,1.20
2023-03-28T13:55:25.242Z,1.23
2023-03-28T13:58:13.671Z,1.30
2023-03-28T14:01:20.763Z,1.73
2023-03-28T14:04:17.119Z,1.30
2023-03-28T14:07:02.504Z,1.50
2023-03-28T14:09:47.707Z,1.60
2023-03-28T14:12:32.990Z,2.00
2023-03-28T14:15:24.291Z,1.27
2023-03-28T14:18:18.908Z,1.20
2023-03-28T14:21:07.540Z,1.20
2023-03-28T14:23:59.573Z,1.27
2023-03-28T14:26:47.060Z,1.20
2023-03-28T14:29:32.498Z,1.50
2023-03-28T14:32:33.005Z,1.30
2023-03-28T14:35:24.367Z,1.30
2023-03-28T14:38:15.997Z,1.40
2023-03-28T14:41:09.083Z,1.53
2023-03-28T14:43:55.906Z,1.40
2023-03-28T14:46:41.260Z,1.10
2023-03-28T14:49:28.034Z,1.40
2023-03-28T14:52:16.407Z,1.30
2023-03-28T14:55:02.404Z,1.40
2023-03-28T14:57:53.149Z,1.47
2023-03-28T15:00:41.902Z,1.20
2023-03-28T15:03:43.141Z,1.13
2023-03-28T15:06:29.447Z,1.27
2023-03-28T15:09:28.750Z,1.40
2023-03-28T15:12:15.929Z,1.63
2023-03-28T15:15:04.020Z,1.90
2023-03-28T15:17:51.439Z,1.13
2023-03-28T15:20:39.089Z,1.20
2023-03-28T15:23:58.593Z,1.10
2023-03-28T15:26:48.334Z,1.37
2023-03-28T15:29:38.452Z,1.50
2023-03-28T15:32:26.735Z,1.50
2023-03-28T15:35:31.254Z,1.40
2023-03-28T15:38:21.577Z,1.83
2023-03-28T15:41:31.769Z,1.53
2023-03-28T15:44:35.831Z,1.33
2023-03-28T15:47:25.912Z,1.40
2023-03-28T15:50:21.335Z,1.70
2023-03-28T15:53:12.736Z,1.60
2023-03-28T15:56:06.380Z,1.83
2023-03-28T15:58:52.015Z,1.93
2023-03-28T16:01:37.298Z,1.67
2023-03-28T16:04:31.202Z,1.50
2023-03-28T16:07:17.137Z,1.77
2023-03-28T16:10:03.640Z,1.23
2023-03-28T16:12:54.419Z,1.50
2023-03-28T16:15:51.822Z,1.63
2023-03-28T16:18:57.542Z,1.60
2023-03-28T16:21:43.963Z,1.63
2023-03-28T16:24:29.158Z,1.63
2023-03-28T16:27:14.533Z,1.43
2023-03-28T16:29:59.946Z,1.87
2023-03-28T16:32:45.519Z,1.30
2023-03-28T16:35:30.865Z,2.00
2023-03-28T16:38:16.789Z,1.67
2023-03-28T16:41:02.170Z,1.70
2023-03-28T16:43:47.791Z,1.57
2023-03-28T16:46:33.170Z,2.03
2023-03-28T16:49:18.672Z,2.47
2023-03-28T16:52:04.773Z,2.03
2023-03-28T16:54:50.075Z,1.93
2023-03-28T16:57:36.818Z,1.60
2023-03-28T17:00:22.793Z,1.90
2023-03-28T17:03:10.054Z,2.17
2023-03-28T17:05:55.309Z,2.03
2023-03-28T17:08:40.848Z,2.03
2023-03-28T17:11:26.951Z,2.30
2023-03-28T17:14:12.194Z,2.03
2023-03-28T17:16:56.949Z,1.87
2023-03-28T17:19:42.449Z,1.93
2023-03-28T17:22:27.680Z,2.00
2023-03-28T17:25:13.072Z,2.20
2023-03-28T17:27:58.332Z,2.27
2023-03-28T17:30:44.249Z,2.43
2023-03-28T17:33:31.285Z,1.90
2023-03-28T17:36:23.807Z,2.70
2023-03-28T17:39:11.736Z,2.20
2023-03-28T17:41:57.892Z,2.13
2023-03-28T17:44:45.403Z,2.30
2023-03-28T17:47:31.805Z,1.80
2023-03-28T17:50:18.048Z,2.03
2023-03-28T17:53:03.294Z,1.90
2023-03-28T17:55:48.530Z,2.57
2023-03-28T17:58:34.612Z,2.20
2023-03-28T18:01:29.541Z,1.80
2023-03-28T18:04:17.789Z,1.83
2023-03-28T18:07:28.578Z,1.63
2023-03-28T18:10:19.584Z,1.70
2023-03-28T18:13:06.199Z,2.00
2023-03-28T18:15:56.097Z,1.97
2023-03-28T18:18:41.712Z,2.00
2023-03-28T18:21:28.616Z,2.03
2023-03-28T18:24:14.508Z,1.80
2023-03-28T18:27:01.708Z,1.80
2023-03-28T18:29:49.385Z,2.00
2023-03-28T18:32:37.626Z,2.00
2023-03-28T18:35:25.023Z,1.47
2023-03-28T18:38:10.686Z,1.80
2023-03-28T18:40:57.940Z,2.07
2023-03-28T18:43:45.734Z,1.87
2023-03-28T18:46:36.556Z,1.43
2023-03-28T18:49:31.010Z,1.70
2023-03-28T18:52:17.948Z,1.50
2023-03-28T18:55:07.907Z,1.97
2023-03-28T18:58:02.638Z,1.70
2023-03-28T19:01:04.527Z,1.80
2023-03-28T19:03:52.215Z,1.60
2023-03-28T19:06:39.791Z,1.80
2023-03-28T19:09:29.052Z,1.87
2023-03-28T19:12:15.642Z,2.17
2023-03-28T19:15:06.621Z,1.70
2023-03-28T19:17:52.499Z,1.87
2023-03-28T19:20:38.329Z,1.87
2023-03-28T19:23:29.159Z,1.70
2023-03-28T19:26:20.598Z,1.47
2023-03-28T19:29:09.444Z,1.70
2023-03-28T19:31:58.999Z,1.87
2023-03-28T19:34:54.099Z,1.67
2023-03-28T19:37:42.234Z,1.80
2023-03-28T19:40:31.082Z,1.50
2023-03-28T19:46:30.990Z,1.60
2023-03-28T19:49:24.438Z,1.90
2023-03-28T19:52:10.273Z,1.40
2023-03-28T19:54:55.994Z,1.40
2023-03-28T19:57:41.156Z,1.40
2023-03-28T20:00:26.322Z,1.97
2023-03-28T20:03:11.411Z,1.53
2023-03-28T20:06:02.771Z,1.47
2023-03-28T20:08:48.495Z,1.40
2023-03-28T20:11:34.084Z,1.53
2023-03-28T20:14:21.203Z,1.50
2023-03-28T20:17:06.458Z,1.70
2023-03-28T20:19:51.788Z,1.60
2023-03-28T20:22:37.784Z,1.77
2023-03-28T20:25:24.180Z,1.50
2023-03-28T20:28:10.067Z,1.50
2023-03-28T20:30:55.693Z,1.17
2023-03-28T20:33:41.456Z,1.37
2023-03-28T20:36:27.005Z,1.37
2023-03-28T20:39:13.083Z,1.60
2023-03-28T20:42:02.962Z,1.60
2023-03-28T20:44:48.158Z,1.50
2023-03-28T20:47:33.161Z,1.67
2023-03-28T20:50:19.171Z,1.43
2023-03-28T20:53:08.199Z,1.50
2023-03-28T20:56:03.328Z,1.60
2023-03-28T20:58:50.458Z,1.70
2023-03-28T21:01:39.375Z,1.57
2023-03-28T21:04:25.299Z,1.43
2023-03-28T21:07:11.100Z,1.50
2023-03-28T21:09:57.361Z,1.50
2023-03-28T21:12:47.236Z,1.40
2023-03-28T21:15:34.534Z,1.57
2023-03-28T21:18:19.585Z,2.13
2023-03-28T21:21:06.929Z,1.70
2023-03-28T21:23:53.089Z,1.50
2023-03-28T21:26:38.462Z,1.50
2023-03-28T21:29:24.488Z,1.43
2023-03-28T21:32:10.697Z,1.53
2023-03-28T21:34:57.387Z,1.40
2023-03-28T21:37:42.447Z,1.70
2023-03-28T21:40:27.818Z,1.10
2023-03-28T21:43:13.045Z,1.30
2023-03-28T21:45:57.885Z,1.50
2023-03-28T21:48:45.285Z,1.20
2023-03-28T21:51:31.559Z,1.40
2023-03-28T21:54:16.592Z,1.20
2023-03-28T21:57:01.992Z,1.53
2023-03-28T21:59:47.473Z,1.30
2023-03-28T22:02:32.598Z,1.40
2023-03-28T22:05:28.653Z,1.53
2023-03-28T22:08:14.907Z,1.60
2023-03-28T22:11:03.302Z,1.83
2023-03-28T22:13:48.650Z,1.57
2023-03-28T22:16:39.733Z,1.33
2023-03-28T22:19:25.175Z,1.30
2023-03-28T22:22:11.152Z,1.13
2023-03-28T22:25:00.377Z,1.60
2023-03-28T22:27:45.790Z,1.27
2023-03-28T22:30:32.244Z,1.40
2023-03-28T22:33:19.238Z,1.40
2023-03-28T22:36:04.807Z,1.50
2023-03-28T22:38:49.628Z,1.20
2023-03-28T22:41:34.764Z,1.10
2023-03-28T22:44:21.577Z,1.23
2023-03-28T22:47:06.575Z,1.10
2023-03-28T22:49:53.686Z,1.33
2023-03-28T22:52:38.869Z,1.60
2023-03-28T22:55:24.183Z,1.33
2023-03-28T22:58:09.357Z,1.30
2023-03-28T23:00:55.011Z,1.30
2023-03-28T23:03:40.553Z,1.33
2023-03-28T23:06:25.573Z,1.50
2023-03-28T23:09:12.902Z,1.30
2023-03-28T23:11:57.673Z,1.43
2023-03-28T23:14:42.477Z,1.30
2023-03-28T23:17:29.793Z,1.30
2023-03-28T23:20:16.997Z,1.20
2023-03-28T23:23:01.952Z,1.07
2023-03-28T23:25:47.620Z,1.00
2023-03-28T23:28:32.748Z,1.33
2023-03-28T23:31:17.859Z,1.20
2023-03-28T23:34:03.009Z,1.30
2023-03-28T23:36:50.590Z,1.30
2023-03-28T23:39:37.414Z,1.20
2023-03-28T23:42:23.978Z,1.00
2023-03-28T23:45:10.915Z,1.27
2023-03-28T23:47:56.307Z,1.57
2023-03-28T23:50:42.022Z,1.20
2023-03-28T23:53:28.106Z,1.20
2023-03-28T23:56:12.976Z,1.30
2023-03-28T23:58:57.910Z,1.13
